createdAt,value
2017-07-10T00:01:34.167Z,66.80
2017-07-10T00:04:00.395Z,66.80
2017-07-10T00:06:27.324Z,67.00
2017-07-10T00:08:54.388Z,66.90
2017-07-10T00:11:20.601Z,66.80
2017-07-10T00:13:46.946Z,67.20
2017-07-10T00:16:13.140Z,67.10
2017-07-10T00:18:39.411Z,65.50
2017-07-10T00:21:06.644Z,66.90
2017-07-10T00:23:32.895Z,66.50
2017-07-10T00:25:59.066Z,65.30
2017-07-10T00:28:25.384Z,67.20
2017-07-10T00:30:51.640Z,68.10
2017-07-10T00:33:17.895Z,67.70
2017-07-10T00:35:44.067Z,67.60
2017-07-10T00:38:10.331Z,66.80
2017-07-10T00:40:37.505Z,66.80
2017-07-10T00:43:03.652Z,66.80
2017-07-10T00:45:30.009Z,67.40
2017-07-10T00:47:56.193Z,67.80
2017-07-10T00:50:22.367Z,66.00
2017-07-10T00:52:48.630Z,66.70
2017-07-10T00:55:15.661Z,67.60
2017-07-10T00:57:42.760Z,68.70
2017-07-10T01:00:09.547Z,67.70
2017-07-10T01:02:35.786Z,67.50
2017-07-10T01:05:02.320Z,67.40
2017-07-10T01:07:28.759Z,66.50
2017-07-10T01:09:54.983Z,65.80
2017-07-10T01:12:21.219Z,67.20
2017-07-10T01:14:48.360Z,66.20
2017-07-10T01:17:14.556Z,66.20
2017-07-10T01:19:40.758Z,67.50
2017-07-10T01:22:06.937Z,67.20
2017-07-10T01:24:33.140Z,66.30
2017-07-10T01:26:59.331Z,67.60
2017-07-10T01:29:25.486Z,68.50
2017-07-10T09:23:48.356Z,56.20
2017-07-10T09:26:15.291Z,58.20
2017-07-10T09:28:42.231Z,55.30
2017-07-10T09:31:08.406Z,55.40
2017-07-10T09:33:34.624Z,57.00
2017-07-10T09:36:00.791Z,55.40
2017-07-10T09:38:26.976Z,53.10
2017-07-10T09:40:53.154Z,55.30
2017-07-10T09:43:19.490Z,54.30
2017-07-10T09:45:45.676Z,55.30
2017-07-10T09:48:11.836Z,55.30
2017-07-10T09:50:38.021Z,52.50
2017-07-10T09:53:04.187Z,54.40
2017-07-10T09:55:30.531Z,53.50
2017-07-10T09:57:56.723Z,54.00
2017-07-10T10:00:22.945Z,52.00
2017-07-10T10:02:49.165Z,52.00
2017-07-10T10:05:15.364Z,51.90
2017-07-10T10:07:41.536Z,51.50
2017-07-10T10:10:07.819Z,52.10
2017-07-10T10:12:34.031Z,51.90
2017-07-10T10:15:00.233Z,50.70
2017-07-10T10:17:26.405Z,49.70
2017-07-10T10:19:52.568Z,50.50
2017-07-10T10:22:18.760Z,50.10
2017-07-10T10:24:45.034Z,48.40
2017-07-10T10:27:11.248Z,50.00
2017-07-10T10:29:37.412Z,48.90
2017-07-10T10:32:03.596Z,48.40
2017-07-10T10:34:29.807Z,47.20
2017-07-10T10:36:56.051Z,47.80
2017-07-10T10:39:22.247Z,47.90
2017-07-10T10:41:48.439Z,48.90
2017-07-10T10:44:14.652Z,48.20
2017-07-10T10:46:40.878Z,47.90
2017-07-10T10:49:07.084Z,46.60
2017-07-10T10:51:33.274Z,46.50
2017-07-10T10:53:59.446Z,46.50
2017-07-10T10:56:25.607Z,45.60
2017-07-10T10:58:51.782Z,46.50
2017-07-10T11:01:18.706Z,46.60
2017-07-10T11:03:44.930Z,46.60
2017-07-10T11:06:11.836Z,46.80
2017-07-10T11:08:38.112Z,46.80
2017-07-10T11:11:04.381Z,47.80
2017-07-10T11:13:31.332Z,46.60
2017-07-10T11:15:57.503Z,46.40
2017-07-10T11:18:23.700Z,45.00
2017-07-10T11:20:49.911Z,45.40
2017-07-10T11:23:16.140Z,45.70
2017-07-10T11:25:42.316Z,45.20
2017-07-10T11:28:08.511Z,45.40
2017-07-10T11:30:34.655Z,48.40
2017-07-10T11:33:01.290Z,56.30
2017-07-10T11:35:27.504Z,60.50
2017-07-10T11:37:53.704Z,59.10
2017-07-10T11:40:19.891Z,59.10
2017-07-10T11:42:46.126Z,60.30
2017-07-10T11:45:12.330Z,65.60
2017-07-10T11:47:38.502Z,63.50
2017-07-10T11:50:05.419Z,62.00
2017-07-10T11:52:31.611Z,61.90
2017-07-10T11:54:57.824Z,61.90
2017-07-10T11:57:23.972Z,61.80
2017-07-10T11:59:50.152Z,60.00
2017-07-10T12:02:16.296Z,58.20
2017-07-10T12:04:42.475Z,58.20
2017-07-10T12:07:08.793Z,59.60
2017-07-10T12:09:35.019Z,56.80
2017-07-10T12:12:01.201Z,56.30
2017-07-10T12:14:27.430Z,57.60
2017-07-10T12:16:53.629Z,56.10
2017-07-10T12:19:19.812Z,57.20
2017-07-10T12:21:46.076Z,54.30
2017-07-10T12:24:12.233Z,54.30
2017-07-10T12:26:38.538Z,54.70
2017-07-10T12:29:04.732Z,56.20
2017-07-10T12:31:30.961Z,56.60
2017-07-10T12:33:57.204Z,55.80
2017-07-10T12:36:23.422Z,55.00
2017-07-10T12:38:49.568Z,55.20
2017-07-10T12:41:15.730Z,55.80
2017-07-10T12:43:41.872Z,54.80
2017-07-10T12:46:08.075Z,54.60
2017-07-10T12:48:34.226Z,54.80
2017-07-10T12:51:00.391Z,55.70
2017-07-10T12:53:26.639Z,53.70
2017-07-10T12:55:52.822Z,54.80
2017-07-10T12:58:19.039Z,53.00
2017-07-10T13:00:45.258Z,51.90
2017-07-10T13:03:11.431Z,51.30
2017-07-10T13:05:37.609Z,48.40
2017-07-10T13:08:03.810Z,46.10
2017-07-10T13:10:29.991Z,44.80
2017-07-10T13:12:56.176Z,42.10
2017-07-10T13:15:22.383Z,44.80
2017-07-10T13:17:49.333Z,44.10
2017-07-10T13:20:15.809Z,43.30
2017-07-10T13:22:41.998Z,38.60
2017-07-10T13:25:08.181Z,42.00
2017-07-10T13:27:34.419Z,41.10
2017-07-10T13:30:00.596Z,40.50
2017-07-10T13:32:26.762Z,41.50
2017-07-10T13:34:53.084Z,43.50
2017-07-10T13:37:19.366Z,44.60
2017-07-10T13:39:45.577Z,45.20
2017-07-10T13:42:11.745Z,45.80
2017-07-10T13:44:37.918Z,47.00
2017-07-10T13:47:04.072Z,48.40
2017-07-10T13:49:30.245Z,48.40
2017-07-10T13:51:56.505Z,56.10
2017-07-10T13:54:22.727Z,60.70
2017-07-10T13:56:49.685Z,60.00
2017-07-10T13:59:15.958Z,60.00
2017-07-10T14:01:42.170Z,62.60
2017-07-10T14:04:08.473Z,62.60
2017-07-10T14:06:34.660Z,58.80
2017-07-10T14:09:00.844Z,62.10
2017-07-10T14:11:27.040Z,61.30
2017-07-10T14:13:53.951Z,60.00
2017-07-10T14:16:20.888Z,60.10
2017-07-10T14:18:47.077Z,60.20
2017-07-10T14:21:13.389Z,57.90
2017-07-10T14:23:39.588Z,57.40
2017-07-10T14:26:05.770Z,60.80
2017-07-10T14:28:32.005Z,57.80
2017-07-10T14:30:58.232Z,59.50
2017-07-10T14:33:24.428Z,59.40
2017-07-10T14:35:50.670Z,56.70
2017-07-10T14:38:16.856Z,55.50
2017-07-10T14:40:43.037Z,55.50
2017-07-10T14:43:09.352Z,55.50
2017-07-10T14:45:35.548Z,55.50
2017-07-10T14:48:01.754Z,56.60
2017-07-10T14:50:27.948Z,54.80
2017-07-10T14:52:54.124Z,56.90
2017-07-10T14:55:20.289Z,54.10
2017-07-10T14:57:46.469Z,51.70
2017-07-10T15:00:12.685Z,52.80
2017-07-10T15:02:38.884Z,51.80
2017-07-10T15:05:06.135Z,52.00
2017-07-10T15:07:32.425Z,55.20
2017-07-10T15:09:58.635Z,52.70
2017-07-10T15:12:24.856Z,54.70
2017-07-10T15:14:51.019Z,48.80
2017-07-10T15:17:17.209Z,50.50
2017-07-10T15:19:43.448Z,49.80
2017-07-10T15:22:09.637Z,48.30
2017-07-10T15:24:35.886Z,50.20
2017-07-10T15:27:02.858Z,47.20
2017-07-10T15:29:29.079Z,47.20
2017-07-10T15:31:55.266Z,48.50
2017-07-10T15:34:21.478Z,47.50
2017-07-10T15:36:47.648Z,47.90
2017-07-10T15:39:13.864Z,49.70
2017-07-10T15:41:40.243Z,47.50
2017-07-10T15:44:06.504Z,47.70
2017-07-10T15:46:32.910Z,46.80
2017-07-10T15:48:59.881Z,48.20
2017-07-10T15:51:26.124Z,47.80
2017-07-10T15:53:52.335Z,44.90
2017-07-10T15:56:18.512Z,45.70
2017-07-10T15:58:44.689Z,47.20
2017-07-10T16:01:10.949Z,45.80
2017-07-10T16:03:37.185Z,47.00
2017-07-10T16:06:03.508Z,45.70
2017-07-10T16:08:29.732Z,45.70
2017-07-10T16:10:55.997Z,47.60
2017-07-10T16:13:22.284Z,48.80
2017-07-10T16:15:48.473Z,49.10
2017-07-10T16:18:14.678Z,48.10
2017-07-10T16:20:41.147Z,46.30
2017-07-10T16:23:08.156Z,47.70
2017-07-10T16:25:34.500Z,47.70
2017-07-10T16:28:00.701Z,48.40
2017-07-10T16:30:26.980Z,47.20
2017-07-10T16:32:53.183Z,47.50
2017-07-10T16:35:19.377Z,47.50
2017-07-10T16:37:45.629Z,47.00
2017-07-10T16:40:11.909Z,47.50
2017-07-10T16:42:42.338Z,48.60
2017-07-10T16:45:08.530Z,47.60
2017-07-10T16:47:34.848Z,49.70
2017-07-10T16:50:01.063Z,47.80
2017-07-10T16:52:27.308Z,47.30
2017-07-10T16:54:53.472Z,48.30
2017-07-10T16:57:19.675Z,48.10
2017-07-10T16:59:45.904Z,48.40
2017-07-10T17:02:12.096Z,48.50
2017-07-10T17:04:38.423Z,47.60
2017-07-10T17:07:04.620Z,47.70
2017-07-10T17:09:31.552Z,48.30
2017-07-10T17:11:57.816Z,48.20
2017-07-10T17:14:24.013Z,47.50
2017-07-10T17:16:50.182Z,48.60
2017-07-10T17:19:16.399Z,47.20
2017-07-10T17:21:43.415Z,46.10
2017-07-10T17:24:09.666Z,46.20
2017-07-10T17:26:35.856Z,47.00
2017-07-10T17:29:02.815Z,48.20
2017-07-10T17:31:28.988Z,48.00
2017-07-10T17:33:55.917Z,47.30
2017-07-10T17:36:22.127Z,47.30
2017-07-10T17:38:48.332Z,46.70
2017-07-10T17:41:14.522Z,46.10
2017-07-10T17:43:40.742Z,46.60
2017-07-10T17:46:06.982Z,45.80
2017-07-10T17:48:34.372Z,47.10
2017-07-10T17:51:05.289Z,47.20
2017-07-10T17:53:31.553Z,47.00
2017-07-10T17:55:57.879Z,46.60
2017-07-10T17:58:24.840Z,47.80
2017-07-10T18:00:51.032Z,47.40
2017-07-10T18:03:17.212Z,49.30
2017-07-10T18:05:43.416Z,47.60
2017-07-10T18:08:09.580Z,49.30
2017-07-10T18:10:35.776Z,48.80
2017-07-10T18:13:01.945Z,49.10
2017-07-10T18:15:28.171Z,49.80
2017-07-10T18:17:54.507Z,49.10
2017-07-10T18:20:20.700Z,50.40
2017-07-10T18:22:46.886Z,49.40
2017-07-10T18:25:13.126Z,49.10
2017-07-10T18:27:39.396Z,49.90
2017-07-10T18:30:06.347Z,47.90
2017-07-10T18:32:32.765Z,48.00
2017-07-10T18:34:59.047Z,49.80
2017-07-10T18:37:26.044Z,49.40
2017-07-10T18:39:52.219Z,49.40
2017-07-10T18:42:18.412Z,49.90
2017-07-10T18:44:44.567Z,49.60
2017-07-10T18:47:10.763Z,49.20
2017-07-10T18:49:36.955Z,49.60
2017-07-10T18:52:03.325Z,49.20
2017-07-10T18:54:30.268Z,51.00
2017-07-10T18:56:56.429Z,51.00
2017-07-10T18:59:25.325Z,50.40
2017-07-10T19:01:51.612Z,51.30
2017-07-10T19:04:19.056Z,50.40
2017-07-10T19:06:45.273Z,50.30
2017-07-10T19:09:12.379Z,47.30
2017-07-10T19:11:38.708Z,50.40
2017-07-10T19:14:05.005Z,49.20
2017-07-10T19:16:31.940Z,49.10
2017-07-10T19:18:58.867Z,51.10
2017-07-10T19:21:26.748Z,50.40
2017-07-10T19:23:53.989Z,49.80
2017-07-10T19:26:21.122Z,49.80
2017-07-10T19:28:47.501Z,50.50
2017-07-10T19:31:14.305Z,51.80
2017-07-10T19:33:40.725Z,52.40
2017-07-10T19:36:07.060Z,50.40
2017-07-10T19:38:34.293Z,51.10
2017-07-10T19:41:00.474Z,51.50
2017-07-10T19:43:26.708Z,53.70
2017-07-10T19:45:52.917Z,53.80
2017-07-10T19:48:19.105Z,52.20
2017-07-10T19:50:45.286Z,52.80
2017-07-10T19:53:15.745Z,53.30
2017-07-10T19:58:33.363Z,54.80
2017-07-10T20:00:59.528Z,53.70
2017-07-10T20:03:25.714Z,53.80
2017-07-10T20:05:52.713Z,54.10
2017-07-10T20:08:18.912Z,54.10
2017-07-10T20:10:45.100Z,55.50
2017-07-10T20:13:12.849Z,55.40
2017-07-10T20:15:39.336Z,56.40
2017-07-10T20:18:06.291Z,55.50
2017-07-10T20:20:32.480Z,55.30
2017-07-10T20:22:58.672Z,54.70
2017-07-10T20:25:24.824Z,55.40
2017-07-10T20:27:51.764Z,57.40
2017-07-10T20:30:17.965Z,57.30
2017-07-10T20:32:44.930Z,56.20
2017-07-10T20:35:11.152Z,56.10
2017-07-10T20:37:37.479Z,56.90
2017-07-10T20:40:08.603Z,56.70
2017-07-10T20:42:35.102Z,57.10
2017-07-10T20:45:01.294Z,57.40
2017-07-10T20:47:28.654Z,57.20
2017-07-10T20:49:55.861Z,57.20
2017-07-10T20:52:22.060Z,58.10
2017-07-10T20:54:48.315Z,57.70
2017-07-10T20:57:15.320Z,58.10
2017-07-10T20:59:41.695Z,58.70
2017-07-10T21:02:07.850Z,59.40
2017-07-10T21:04:34.792Z,59.00
2017-07-10T21:07:01.006Z,58.90
2017-07-10T21:09:27.222Z,59.30
2017-07-10T21:11:53.405Z,59.30
2017-07-10T21:14:20.384Z,59.50
2017-07-10T21:16:46.532Z,59.50
2017-07-10T21:19:13.228Z,58.60
2017-07-10T21:21:39.489Z,59.90
2017-07-10T21:24:05.740Z,60.10
2017-07-10T21:26:31.967Z,60.00
2017-07-10T21:28:59.600Z,59.70
2017-07-10T21:31:35.418Z,58.80
2017-07-10T21:34:03.350Z,58.60
2017-07-10T21:36:37.720Z,58.20
2017-07-10T21:39:05.460Z,58.50
2017-07-10T21:41:31.668Z,57.10
2017-07-10T21:43:57.881Z,58.80
2017-07-10T21:46:24.094Z,59.00
2017-07-10T21:48:50.283Z,59.30
2017-07-10T21:51:16.494Z,58.00
2017-07-10T21:53:54.725Z,58.50
2017-07-10T21:56:27.286Z,58.30
2017-07-10T21:59:07.374Z,58.10
2017-07-10T22:01:33.547Z,58.40
2017-07-10T22:03:59.707Z,57.80
2017-07-10T22:06:25.872Z,56.80
2017-07-10T22:08:52.106Z,57.50
2017-07-10T22:11:18.415Z,57.40
2017-07-10T22:13:44.613Z,58.10
2017-07-10T22:16:10.846Z,57.60
2017-07-10T22:18:37.034Z,57.00
2017-07-10T22:21:03.243Z,57.50
2017-07-10T22:23:29.432Z,58.20
2017-07-10T22:25:55.629Z,56.00
2017-07-10T22:28:21.881Z,57.70
2017-07-10T22:30:48.134Z,57.60
2017-07-10T22:33:14.354Z,56.80
2017-07-10T22:35:41.286Z,57.60
2017-07-10T22:38:08.238Z,57.80
2017-07-10T22:40:34.441Z,57.80
2017-07-10T22:43:00.656Z,57.70
2017-07-10T22:45:26.812Z,56.70
2017-07-10T22:47:52.994Z,57.30
2017-07-10T22:50:19.136Z,57.20
2017-07-10T22:52:45.355Z,56.30
2017-07-10T22:55:11.540Z,57.00
2017-07-10T22:57:37.808Z,57.50
2017-07-10T23:00:04.185Z,57.20
2017-07-10T23:02:30.397Z,56.40
2017-07-10T23:04:56.606Z,56.80
2017-07-10T23:07:22.773Z,57.70
2017-07-10T23:09:48.972Z,57.10
2017-07-10T23:12:16.618Z,57.60
2017-07-10T23:14:43.005Z,57.70
2017-07-10T23:17:09.195Z,56.70
2017-07-10T23:19:35.505Z,57.40
2017-07-10T23:22:01.767Z,56.30
2017-07-10T23:24:28.925Z,56.70
2017-07-10T23:26:55.834Z,57.00
2017-07-10T23:29:22.125Z,56.90
2017-07-10T23:31:48.287Z,55.90
2017-07-10T23:34:14.513Z,55.10
2017-07-10T23:36:44.298Z,55.60
2017-07-10T23:39:10.482Z,55.10
2017-07-10T23:41:36.712Z,55.40
2017-07-10T23:44:03.675Z,55.00
2017-07-10T23:46:29.844Z,54.90
2017-07-10T23:48:56.023Z,55.10
2017-07-10T23:51:22.254Z,55.70
2017-07-10T23:53:48.442Z,55.70
2017-07-10T23:56:14.648Z,55.20
2017-07-10T23:58:40.832Z,55.50
